Time;durP1;ratioP1;P1;durP2;ratioP2;P2;SDS_P1;SDS_P2;PMS_P1;PMS_P2;Temp;Humidity;BMP_temperature;BMP_pressure;BME280_temperature;BME280_humidity;BME280_pressure;Samples;Min_cycle;Max_cycle;Signal;HPM_P1;HPM_P2
2022/08/10 00:01:43;;;;;;;;;;;;;;;19.56;59.18;101284.34;4936758;29;20042;-82
2022/08/10 00:04:08;;;;;;;2.00;0.90;;;;;;;19.55;58.92;101280.78;4935779;29;19918;-81
2022/08/10 00:06:33;;;;;;;;;;;;;;;19.50;59.28;101276.34;4936650;29;20266;-83
2022/08/10 00:08:58;;;;;;;2.53;0.93;;;;;;;19.50;59.21;101279.09;4936109;29;19918;-82
2022/08/10 00:11:24;;;;;;;;;;;;;;;19.52;59.29;101271.25;4936107;29;20094;-82
2022/08/10 00:13:50;;;;;;;3.47;1.20;;;;;;;19.39;59.96;101275.34;4935722;29;19915;-82
2022/08/10 00:16:15;;;;;;;;;;;;;;;19.35;60.01;101279.19;4936194;29;20398;-82
2022/08/10 00:18:42;;;;;;;3.70;1.00;;;;;;;19.37;60.09;101274.13;4936764;29;20048;-81
2022/08/10 00:21:09;;;;;;;2.33;0.90;;;;;;;19.32;60.35;101272.47;4936206;29;20032;-79
2022/08/10 00:23:36;;;;;;;2.50;1.10;;;;;;;19.23;60.81;101271.88;4936225;29;20032;-83
2022/08/10 00:26:02;;;;;;;3.95;1.08;;;;;;;19.17;60.96;101267.81;4935940;29;20463;-83
2022/08/10 00:28:28;;;;;;;2.50;0.73;;;;;;;19.18;61.15;101263.91;4935478;29;20054;-82
2022/08/10 00:30:54;;;;;;;3.15;1.33;;;;;;;19.07;61.42;101263.69;4935813;29;20107;-81
2022/08/10 00:33:19;;;;;;;;;;;;;;;19.01;61.89;101264.34;4936304;29;20046;-82
2022/08/10 00:35:45;;;;;;;2.33;0.93;;;;;;;18.94;62.08;101260.25;4935314;29;20348;-81
2022/08/10 00:38:10;;;;;;;;;;;;;;;18.93;62.16;101264.19;4936092;29;20036;-82
2022/08/10 00:40:36;;;;;;;2.28;1.00;;;;;;;18.97;62.01;101260.69;4934380;29;19918;-81
2022/08/10 00:43:01;;;;;;;;;;;;;;;18.93;62.14;101264.19;4935995;29;20119;-83
2022/08/10 00:45:26;;;;;;;2.58;0.95;;;;;;;18.87;62.57;101264.84;4935405;29;20317;-83
2022/08/10 00:47:52;;;;;;;;;;;;;;;18.85;62.55;101262.47;4935936;29;20039;-83
2022/08/10 00:50:17;;;;;;;3.57;1.53;;;;;;;18.84;62.67;101258.09;4935341;29;20081;-82
2022/08/10 00:52:43;;;;;;;;;;;;;;;18.86;62.88;101264.06;4935737;29;20451;-82
2022/08/10 00:55:08;;;;;;;3.28;1.00;;;;;;;18.78;63.25;101262.28;4935456;29;19914;-81
2022/08/10 00:57:34;;;;;;;;;;;;;;;18.73;63.22;101262.59;4935707;29;20031;-82
2022/08/10 00:59:59;;;;;;;2.78;1.00;;;;;;;18.60;63.92;101269.38;4934957;29;20384;-83
2022/08/10 01:02:24;;;;;;;;;;;;;;;18.56;64.13;101260.22;4936111;29;20295;-82
2022/08/10 01:04:50;;;;;;;2.85;1.10;;;;;;;18.60;64.24;101266.59;4935060;29;20050;-82
2022/08/10 01:07:32;;;;;;;;;;;;;;;18.60;64.20;101256.38;4935579;29;20040;-82
2022/08/10 01:10:14;;;;;;;3.28;1.48;;;;;;;18.63;64.17;101249.38;4935174;29;19918;-82
2022/08/10 01:12:50;;;;;;;3.75;1.30;;;;;;;18.54;64.53;101251.50;4937069;29;20106;-82
2022/08/10 01:15:23;;;;;;;5.63;1.40;;;;;;;18.44;65.04;101247.34;4939050;29;20059;-82
2022/08/10 01:18:03;;;;;;;3.03;1.00;;;;;;;18.48;64.94;101247.47;4938780;29;20119;-82
2022/08/10 01:20:46;;;;;;;4.65;1.20;;;;;;;18.41;65.19;101245.31;4937466;29;20398;-82
2022/08/10 01:23:43;;;;;;;2.97;1.17;;;;;;;18.38;65.50;101245.25;4938960;29;20036;-82
2022/08/10 01:26:25;;;;;;;3.33;1.08;;;;;;;18.44;65.41;101239.09;4938690;29;20035;-83
2022/08/10 01:29:14;;;;;;;2.75;1.00;;;;;;;18.37;65.62;101240.91;4938830;29;20118;-82
2022/08/10 01:31:43;;;;;;;2.42;1.30;;;;;;;18.36;65.79;101233.78;4938428;29;20035;-83
2022/08/10 01:35:04;;;;;;;3.40;1.33;;;;;;;18.33;65.90;101235.31;4938415;29;20042;-81
2022/08/10 01:37:33;;;;;;;2.75;1.10;;;;;;;18.27;66.33;101226.50;4935030;29;20052;-82
2022/08/10 01:40:03;;;;;;;3.10;1.30;;;;;;;18.30;66.14;101231.28;4937344;29;20035;-82
2022/08/10 01:42:31;;;;;;;3.70;1.08;;;;;;;18.23;66.48;101225.63;4938210;29;20042;-83
2022/08/10 01:45:01;;;;;;;2.90;1.15;;;;;;;18.24;66.67;101224.47;4939185;29;20095;-83
2022/08/10 01:50:35;;;;;;;3.40;1.33;;;;;;;18.17;66.87;101226.28;4938182;29;20047;-83
2022/08/10 01:53:06;;;;;;;3.90;1.23;;;;;;;18.21;66.70;101229.91;4939354;29;20046;-82
2022/08/10 01:55:33;;;;;;;3.30;1.40;;;;;;;18.17;66.84;101231.78;4938671;29;20114;-82
2022/08/10 01:58:03;;;;;;;2.90;1.20;;;;;;;18.06;67.54;101230.75;4938481;29;20032;-83
2022/08/10 02:00:31;;;;;;;2.95;1.40;;;;;;;18.03;67.72;101232.25;4938288;29;20122;-82
2022/08/10 02:02:57;;;;;;;4.03;1.40;;;;;;;17.95;68.00;101236.00;4938193;29;20490;-82
2022/08/10 02:05:25;;;;;;;4.22;1.20;;;;;;;17.90;68.36;101234.31;4938583;29;20094;-83
2022/08/10 02:07:54;;;;;;;4.10;1.30;;;;;;;17.93;68.39;101232.78;4938056;29;20035;-83
2022/08/10 02:10:22;;;;;;;4.75;2.15;;;;;;;17.94;68.37;101226.13;4937947;29;20035;-83
2022/08/10 02:12:49;;;;;;;5.10;1.77;;;;;;;17.96;68.30;101232.88;4938213;29;20038;-83
2022/08/10 02:15:18;;;;;;;4.78;1.42;;;;;;;18.01;67.96;101235.38;4938075;29;20040;-83
2022/08/10 02:17:48;;;;;;;3.10;1.58;;;;;;;17.97;68.41;101217.13;4937839;29;20095;-83
2022/08/10 02:20:21;;;;;;;5.65;1.48;;;;;;;17.93;68.32;101224.53;4938112;29;20384;-89
2022/08/10 02:22:50;;;;;;;3.20;1.48;;;;;;;17.88;68.57;101228.34;4938089;29;20039;-84
2022/08/10 02:25:18;;;;;;;2.97;1.20;;;;;;;17.94;68.50;101226.91;4938637;29;20050;-87
2022/08/10 02:27:46;;;;;;;3.38;1.40;;;;;;;17.86;68.64;101227.13;4943247;29;20110;-86
2022/08/10 02:30:12;;;;;;;3.83;1.73;;;;;;;17.80;69.20;101234.84;4954876;29;20109;-86
2022/08/10 02:32:40;;;;;;;3.63;1.40;;;;;;;17.79;69.28;101233.25;4949392;29;20038;-86
2022/08/10 02:35:10;;;;;;;4.47;1.60;;;;;;;17.79;69.31;101232.44;4947336;29;20050;-84
2022/08/10 02:37:38;;;;;;;5.22;1.88;;;;;;;17.64;69.91;101226.56;4948829;29;20036;-85
2022/08/10 02:40:04;;;;;;;5.18;2.00;;;;;;;17.61;70.05;101230.03;4948506;29;20032;-83
2022/08/10 02:42:55;;;;;;;;;;;;;;;17.61;70.06;101238.28;4947341;29;20051;-86
2022/08/10 02:45:41;;;;;;;4.15;1.63;;;;;;;17.56;70.32;101230.28;4942599;29;19911;-85
2022/08/10 02:48:15;;;;;;;4.20;1.85;;;;;;;17.62;70.44;101228.06;4944611;29;20123;-85
2022/08/10 02:50:43;;;;;;;3.65;1.50;;;;;;;17.65;70.14;101222.66;4946569;29;20048;-86
2022/08/10 02:53:33;;;;;;;4.18;1.52;;;;;;;17.73;69.80;101226.41;4950843;29;20087;-86
2022/08/10 02:56:16;;;;;;;4.38;1.77;;;;;;;17.70;69.85;101219.66;4951476;29;20032;-85
2022/08/10 02:58:44;;;;;;;3.10;1.42;;;;;;;17.77;69.51;101224.53;4955309;29;20031;-86
2022/08/10 03:01:13;;;;;;;4.68;1.55;;;;;;;17.74;69.46;101231.56;4949782;29;20039;-85
2022/08/10 03:03:46;;;;;;;3.58;1.50;;;;;;;17.64;70.03;101221.06;4951289;29;20194;-88
2022/08/10 03:06:15;;;;;;;3.45;1.27;;;;;;;17.72;69.79;101235.84;4953805;29;20111;-87
2022/08/10 03:08:43;;;;;;;4.43;1.40;;;;;;;17.71;69.83;101225.97;4948015;29;20023;-86
2022/08/10 03:11:16;;;;;;;3.53;1.65;;;;;;;17.63;70.11;101226.91;4955033;29;20067;-86
2022/08/10 03:13:44;;;;;;;3.30;1.60;;;;;;;17.49;70.69;101232.09;4945927;29;20090;-89
2022/08/10 03:16:10;;;;;;;5.15;1.90;;;;;;;17.41;71.27;101236.59;4946022;29;20126;-87
2022/08/10 03:18:37;;;;;;;4.25;1.58;;;;;;;17.43;71.03;101235.06;4943109;29;20032;-89
2022/08/10 03:21:04;;;;;;;3.30;1.48;;;;;;;17.54;70.93;101229.84;4941078;29;20036;-87
2022/08/10 03:23:31;;;;;;;3.85;1.60;;;;;;;17.42;70.99;101230.72;4939245;29;20028;-87
2022/08/10 03:25:59;;;;;;;4.35;1.55;;;;;;;17.44;71.00;101235.88;4938179;29;20509;-87
2022/08/10 03:28:27;;;;;;;3.65;1.77;;;;;;;17.39;71.39;101244.41;4943200;29;20032;-84
2022/08/10 03:30:54;;;;;;;4.78;1.60;;;;;;;17.35;71.38;101238.81;4953075;29;20039;-85
2022/08/10 03:33:21;;;;;;;5.03;1.65;;;;;;;17.33;71.69;101234.81;4936933;29;20123;-88
2022/08/10 03:35:47;;;;;;;4.53;1.60;;;;;;;17.20;72.30;101230.53;4941322;29;20051;-82
2022/08/10 03:38:12;;;;;;;4.78;2.05;;;;;;;17.09;72.77;101227.47;4936480;29;20471;-82
2022/08/10 03:40:39;;;;;;;;;;;;;;;17.04;72.99;101236.00;4936435;29;20046;-84
2022/08/10 03:43:06;;;;;;;5.95;2.08;;;;;;;17.06;72.88;101234.47;4936062;29;19917;-83
2022/08/10 03:45:33;;;;;;;3.92;1.92;;;;;;;17.10;72.66;101235.38;4935974;29;20102;-83
2022/08/10 03:48:01;;;;;;;3.90;1.60;;;;;;;17.14;72.60;101232.75;4936231;29;20451;-83
2022/08/10 03:50:28;;;;;;;5.80;1.85;;;;;;;17.16;72.38;101230.44;4936318;29;20032;-83
2022/08/10 03:52:55;;;;;;;5.05;1.90;;;;;;;17.06;72.90;101234.47;4935860;29;20110;-83
2022/08/10 03:55:22;;;;;;;3.40;1.65;;;;;;;17.01;73.12;101229.25;4935781;29;20042;-83
2022/08/10 03:57:48;;;;;;;4.43;2.00;;;;;;;16.95;73.28;101227.06;4935942;29;20043;-82
2022/08/10 04:00:17;;;;;;;;;;;;;;;16.96;73.52;101226.72;4936489;29;20035;-83
2022/08/10 04:02:45;;;;;;;3.72;1.60;;;;;;;16.97;73.45;101224.81;4935978;29;19957;-83
2022/08/10 04:05:13;;;;;;;5.68;2.33;;;;;;;16.95;73.49;101225.13;4935861;29;20032;-83
2022/08/10 04:07:39;;;;;;;5.10;2.15;;;;;;;16.92;73.68;101225.03;4935300;29;20479;-84
2022/08/10 04:10:05;;;;;;;5.38;1.75;;;;;;;16.76;73.99;101224.97;4935922;29;20032;-82
2022/08/10 04:12:30;;;;;;;;;;;;;;;16.76;74.08;101224.97;4936038;29;20356;-83
2022/08/10 04:14:55;;;;;;;5.28;2.13;;;;;;;16.77;74.04;101229.34;4935685;29;19911;-83
2022/08/10 04:17:22;;;;;;;;;;;;;;;16.84;73.87;101233.09;4935869;29;20138;-81
2022/08/10 04:19:51;;;;;;;4.85;1.77;;;;;;;16.87;73.45;101231.59;4935725;29;19934;-82
2022/08/10 04:22:20;;;;;;;4.30;1.90;;;;;;;16.93;73.24;101230.19;4935882;29;20131;-82
2022/08/10 04:24:48;;;;;;;4.07;1.88;;;;;;;16.99;73.12;101228.00;4935665;29;20066;-83
2022/08/10 04:27:15;;;;;;;4.97;1.80;;;;;;;17.07;72.54;101230.59;4935574;29;20035;-80
2022/08/10 04:29:41;;;;;;;4.43;2.33;;;;;;;17.11;72.42;101228.72;4934970;29;20509;-80
2022/08/10 04:32:09;;;;;;;4.07;1.90;;;;;;;17.04;72.29;101225.78;4934296;29;20042;-83
2022/08/10 04:34:39;;;;;;;4.97;1.80;;;;;;;17.02;72.76;101222.59;4937035;29;20078;-80
2022/08/10 04:37:07;;;;;;;5.32;2.20;;;;;;;16.98;72.56;101227.19;4935460;29;20059;-81
2022/08/10 04:39:32;;;;;;;5.50;2.60;;;;;;;16.99;72.62;101226.06;4935348;29;20038;-82
2022/08/10 04:41:58;;;;;;;;;;;;;;;17.09;72.11;101220.03;4935639;29;20044;-82
2022/08/10 04:44:27;;;;;;;4.85;1.85;;;;;;;17.04;72.01;101230.50;4950261;28;20342;-82
2022/08/10 04:46:54;;;;;;;3.80;1.73;;;;;;;17.07;72.18;101227.81;4934332;29;20046;-82
2022/08/10 04:49:19;;;;;;;4.88;2.00;;;;;;;16.88;72.56;101227.69;4935059;29;20027;-82
2022/08/10 04:51:44;;;;;;;5.20;2.17;;;;;;;16.85;72.64;101228.41;4934944;29;20087;-74
2022/08/10 04:54:10;;;;;;;;;;;;;;;16.83;72.82;101236.19;4935376;29;20089;-75
2022/08/10 04:56:36;;;;;;;4.77;1.93;;;;;;;16.83;72.59;101242.50;4934729;29;19970;-73
2022/08/10 04:59:04;;;;;;;4.22;1.42;;;;;;;17.02;71.89;101232.78;4934912;29;20256;-74
2022/08/10 05:01:31;;;;;;;5.75;2.03;;;;;;;16.99;71.61;101234.31;4934675;29;20031;-74
2022/08/10 05:03:56;;;;;;;4.43;1.83;;;;;;;16.93;71.82;101238.44;4934377;29;20032;-74
2022/08/10 05:06:21;;;;;;;5.97;2.28;;;;;;;16.86;71.94;101230.00;4934511;29;20035;-75
2022/08/10 05:08:47;;;;;;;;;;;;;;;16.81;72.22;101239.31;4935184;29;20591;-74
2022/08/10 05:11:12;;;;;;;4.63;2.17;;;;;;;16.81;72.21;101238.50;4935161;29;20045;-74
2022/08/10 05:13:37;;;;;;;4.87;2.63;;;;;;;16.93;71.92;101232.94;4934866;29;20656;-74
2022/08/10 05:16:02;;;;;;;;;;;;;;;16.97;71.57;101230.31;4934560;29;20323;-74
2022/08/10 05:18:28;;;;;;;4.80;1.90;;;;;;;17.00;71.17;101235.91;4934421;29;19933;-73
2022/08/10 05:20:53;;;;;;;4.23;1.93;;;;;;;17.08;70.77;101228.63;4934699;29;20122;-74
2022/08/10 05:23:18;;;;;;;5.47;2.17;;;;;;;17.07;70.89;101236.09;4934712;29;20723;-74
2022/08/10 05:25:44;;;;;;;5.78;2.10;;;;;;;17.11;70.51;101230.66;4934697;29;20063;-74
2022/08/10 05:28:09;;;;;;;;;;;;;;;17.17;70.73;101231.22;4934623;29;20027;-75
2022/08/10 05:30:34;;;;;;;3.97;1.85;;;;;;;17.28;69.73;101230.34;4934485;29;19915;-74
2022/08/10 05:33:00;;;;;;;;;;;;;;;17.28;69.94;101235.06;4934511;29;20109;-74
2022/08/10 05:35:27;;;;;;;8.40;2.20;;;;;;;17.30;69.43;101228.06;4933932;29;19918;-74
2022/08/10 05:37:55;;;;;;;4.53;2.08;;;;;;;17.38;69.07;101240.06;4934408;29;20102;-74
2022/08/10 05:40:22;;;;;;;4.78;2.10;;;;;;;17.36;69.03;101225.84;4933542;29;20128;-82
2022/08/10 05:42:47;;;;;;;5.82;2.25;;;;;;;17.37;68.98;101241.22;4935009;29;20043;-83
2022/08/10 05:45:29;;;;;;;6.28;2.47;;;;;;;17.54;68.40;101232.59;4934475;29;20458;-82
2022/08/10 05:47:55;;;;;;;5.45;2.40;;;;;;;17.52;68.39;101229.41;4933377;29;20078;-83
2022/08/10 05:50:22;;;;;;;;;;;;;;;17.64;68.07;101232.09;4935910;29;20071;-84
2022/08/10 05:52:48;;;;;;;6.65;2.70;;;;;;;17.70;67.66;101236.19;4934473;29;19946;-83
2022/08/10 05:55:13;;;;;;;;;;;;;;;17.72;67.63;101233.09;4935571;29;20078;-84
2022/08/10 05:57:39;;;;;;;6.03;2.28;;;;;;;17.72;67.54;101238.59;4935057;29;19923;-85
2022/08/10 06:00:06;;;;;;;;;;;;;;;17.95;66.73;101236.00;4938506;29;20031;-83
2022/08/10 06:02:33;;;;;;;;;;;;;;;18.10;66.11;101232.41;4953570;28;19977;-85
2022/08/10 06:05:04;;;;;;;6.47;2.80;;;;;;;17.98;65.94;101232.53;4937148;29;19969;-83
2022/08/10 06:07:30;;;;;;;5.68;2.50;;;;;;;18.14;65.81;101233.31;4938107;29;20130;-84
2022/08/10 06:09:57;;;;;;;;;;;;;;;18.34;65.16;101237.69;4939227;29;20106;-84
2022/08/10 06:12:26;;;;;;;5.97;2.50;;;;;;;18.34;64.70;101232.19;4939106;29;20349;-83
2022/08/10 06:15:00;;;;;;;7.85;2.15;;;;;;;18.50;64.21;101240.41;4940152;29;20036;-83
2022/08/10 06:17:27;;;;;;;5.07;2.50;;;;;;;18.52;64.39;101237.28;4938458;29;20059;-84
2022/08/10 06:19:52;;;;;;;4.40;2.10;;;;;;;18.68;63.79;101242.78;4939905;29;20085;-82
2022/08/10 06:22:18;;;;;;;;;;;;;;;18.53;63.80;101238.88;4941845;29;20047;-82
2022/08/10 06:24:45;;;;;;;6.20;2.50;;;;;;;18.62;63.01;101242.22;4940428;29;19974;-83
2022/08/10 06:27:12;;;;;;;3.90;1.65;;;;;;;18.76;62.88;101250.03;4937950;29;20039;-82
2022/08/10 06:29:40;;;;;;;4.95;2.47;;;;;;;18.80;62.79;101245.38;4937671;29;20178;-83
2022/08/10 06:32:08;;;;;;;5.85;2.15;;;;;;;18.84;62.62;101243.50;4937602;29;20043;-83
2022/08/10 06:34:49;;;;;;;4.72;2.20;;;;;;;18.91;62.59;101243.66;4936238;29;20485;-83
2022/08/10 06:37:17;;;;;;;4.72;2.05;;;;;;;19.10;61.97;101240.06;4937445;29;20051;-84
2022/08/10 06:39:44;;;;;;;4.22;1.95;;;;;;;19.28;61.45;101241.19;4937135;29;20042;-83
2022/08/10 06:42:31;;;;;;;4.65;2.05;;;;;;;19.58;60.24;101238.59;4937518;29;20032;-82
2022/08/10 06:45:15;;;;;;;4.55;2.08;;;;;;;20.09;58.93;101241.00;4937915;29;20035;-83
2022/08/10 06:48:03;;;;;;;4.45;2.30;;;;;;;20.56;56.91;101248.81;4937422;29;20035;-83
2022/08/10 06:50:35;;;;;;;5.68;2.08;;;;;;;20.77;56.43;101250.25;4937553;29;20114;-83
2022/08/10 06:53:02;;;;;;;7.15;2.35;;;;;;;20.66;56.77;101248.19;4937493;29;20043;-84
2022/08/10 06:55:30;;;;;;;4.80;1.75;;;;;;;21.34;54.42;101245.41;4937213;29;20463;-84
2022/08/10 06:57:57;;;;;;;3.97;1.85;;;;;;;21.61;53.56;101246.84;4937464;29;20039;-84
2022/08/10 07:00:25;;;;;;;4.97;2.17;;;;;;;21.77;52.92;101244.59;4936772;29;20028;-83
2022/08/10 07:02:56;;;;;;;4.35;2.00;;;;;;;21.42;53.78;101249.84;4937499;29;20062;-83
2022/08/10 07:05:24;;;;;;;4.30;1.90;;;;;;;21.26;53.84;101248.09;4937159;29;20042;-83
2022/08/10 07:07:53;;;;;;;5.20;2.25;;;;;;;21.14;54.68;101251.09;4935966;29;20047;-84
2022/08/10 07:10:20;;;;;;;4.25;1.90;;;;;;;21.70;53.23;101243.75;4936448;29;20038;-84
2022/08/10 07:12:51;;;;;;;4.88;2.10;;;;;;;21.65;53.35;101241.31;4936964;29;20032;-84
2022/08/10 07:15:19;;;;;;;3.78;1.88;;;;;;;21.29;54.05;101244.56;4936863;29;20055;-84
2022/08/10 07:17:45;;;;;;;4.30;2.08;;;;;;;21.34;54.36;101239.88;4937132;29;20105;-84
2022/08/10 07:20:25;;;;;;;4.57;2.05;;;;;;;21.53;54.21;101245.19;4939227;29;20091;-86
2022/08/10 07:22:52;;;;;;;4.57;1.80;;;;;;;21.70;54.05;101239.00;4937308;29;20146;-84
2022/08/10 07:25:24;;;;;;;7.35;1.98;;;;;;;21.55;53.80;101246.41;4935693;29;20044;-83
2022/08/10 07:27:51;;;;;;;11.50;1.83;;;;;;;21.55;53.73;101249.19;4936991;29;20118;-83
2022/08/10 07:30:17;;;;;;;5.55;1.95;;;;;;;21.60;53.33;101245.25;4936685;29;20032;-82
2022/08/10 07:32:46;;;;;;;4.88;1.90;;;;;;;21.72;53.29;101249.72;4936135;29;20039;-82
2022/08/10 07:35:15;;;;;;;4.50;1.95;;;;;;;21.63;52.35;101253.59;4935380;29;20091;-83
2022/08/10 07:37:45;;;;;;;4.57;1.95;;;;;;;21.49;51.99;101256.22;4936216;29;20439;-83
2022/08/10 07:40:12;;;;;;;3.22;1.50;;;;;;;21.63;51.92;101255.56;4935885;29;20035;-82
2022/08/10 07:42:39;;;;;;;3.10;1.52;;;;;;;21.59;51.98;101254.75;4936766;29;20027;-82
2022/08/10 07:45:05;;;;;;;4.32;1.55;;;;;;;21.66;51.76;101256.78;4937471;29;20031;-83
2022/08/10 07:47:36;;;;;;;4.55;1.67;;;;;;;21.89;50.69;101263.72;4936998;29;20040;-83
2022/08/10 07:50:04;;;;;;;4.43;2.00;;;;;;;22.09;50.21;101263.50;4936566;29;20482;-83
2022/08/10 07:52:32;;;;;;;4.28;1.60;;;;;;;22.20;49.74;101261.59;4936349;29;20184;-83
2022/08/10 07:55:02;;;;;;;3.85;1.70;;;;;;;22.20;49.72;101267.16;4936771;29;20032;-84
2022/08/10 07:57:29;;;;;;;5.35;1.80;;;;;;;22.21;49.64;101260.41;4936874;29;20055;-84
2022/08/10 07:59:58;;;;;;;6.47;1.98;;;;;;;22.15;49.86;101261.94;4936444;29;20032;-84
2022/08/10 08:02:30;;;;;;;4.00;1.55;;;;;;;22.19;49.40;101254.47;4935523;29;20370;-84
2022/08/10 08:04:59;;;;;;;3.92;1.83;;;;;;;22.12;49.17;101260.75;4934730;29;20110;-85
2022/08/10 08:07:27;;;;;;;4.65;1.70;;;;;;;22.48;47.61;101256.19;4934993;29;20533;-84
2022/08/10 08:09:55;;;;;;;4.95;1.95;;;;;;;22.55;47.74;101254.66;4936441;29;20454;-83
2022/08/10 08:12:22;;;;;;;8.32;1.65;;;;;;;22.77;47.24;101261.91;4936214;29;20039;-84
2022/08/10 08:14:49;;;;;;;3.55;1.40;;;;;;;22.85;47.11;101262.78;4936495;29;20040;-85
2022/08/10 08:17:17;;;;;;;3.95;1.35;;;;;;;23.01;46.39;101254.88;4935829;29;20038;-83
2022/08/10 08:19:49;;;;;;;4.00;1.60;;;;;;;23.11;45.81;101252.13;4936176;29;20054;-81
2022/08/10 08:22:16;;;;;;;3.47;1.50;;;;;;;23.06;46.13;101251.72;4950895;28;20313;-84
2022/08/10 08:24:43;;;;;;;3.88;1.80;;;;;;;23.20;46.31;101250.97;4934824;29;20516;-83
2022/08/10 08:27:11;;;;;;;5.50;1.52;;;;;;;23.54;45.61;101246.66;4936507;29;20115;-82
2022/08/10 08:29:40;;;;;;;4.40;1.48;;;;;;;23.73;45.65;101242.72;4936227;29;20031;-82
2022/08/10 08:32:07;;;;;;;3.92;1.45;;;;;;;23.84;45.67;101240.72;4935540;29;20377;-83
2022/08/10 08:34:36;;;;;;;2.55;1.10;;;;;;;23.91;45.52;101245.50;4935652;29;20035;-82
2022/08/10 08:37:02;;;;;;;3.13;1.70;;;;;;;23.77;45.62;101237.16;4935017;29;20085;-83
2022/08/10 08:39:30;;;;;;;4.03;1.50;;;;;;;23.75;45.94;101242.31;4935670;29;20386;-83
2022/08/10 08:42:12;;;;;;;4.50;1.63;;;;;;;23.96;45.48;101239.53;4934606;28;20070;-82
2022/08/10 08:45:02;;;;;;;3.33;1.40;;;;;;;24.06;45.37;101240.72;4935706;29;20066;-85
2022/08/10 08:47:51;;;;;;;4.15;1.65;;;;;;;24.29;44.29;101241.09;4935564;29;20035;-83
2022/08/10 08:50:47;;;;;;;3.40;1.48;;;;;;;24.56;44.05;101239.44;4934809;29;20122;-84
2022/08/10 08:53:30;;;;;;;3.42;1.50;;;;;;;24.71;43.09;101234.59;4935771;29;20036;-82
2022/08/10 08:56:27;;;;;;;3.13;1.40;;;;;;;24.63;42.88;101237.81;4935141;29;20036;-83
2022/08/10 08:59:13;;;;;;;3.40;1.40;;;;;;;24.64;43.12;101233.81;4935597;29;20129;-83
2022/08/10 09:01:59;;;;;;;10.13;1.60;;;;;;;24.54;42.87;101233.47;4935739;29;20075;-81
2022/08/10 09:05:05;;;;;;;3.00;1.30;;;;;;;24.43;43.10;101231.91;4934763;29;20027;-81
2022/08/10 09:08:05;;;;;;;3.58;1.38;;;;;;;24.71;42.80;101226.25;4933840;29;20048;-83
2022/08/10 09:10:53;;;;;;;2.83;1.35;;;;;;;24.68;42.78;101221.47;4934112;29;20054;-82
2022/08/10 09:13:40;;;;;;;3.38;1.23;;;;;;;24.85;42.08;101226.16;4935919;29;20075;-83
2022/08/10 09:16:31;;;;;;;4.10;1.50;;;;;;;24.92;42.64;101219.78;4935090;29;20459;-83
2022/08/10 09:19:21;;;;;;;4.15;1.88;;;;;;;25.23;40.42;101223.59;4935502;29;20031;-83
2022/08/10 09:22:11;;;;;;;5.03;2.17;;;;;;;25.40;40.16;101222.69;4935496;29;20040;-83
2022/08/10 09:24:43;;;;;;;3.78;1.63;;;;;;;25.49;40.23;101220.19;4935610;29;20542;-83
2022/08/10 09:27:20;;;;;;;4.28;1.60;;;;;;;25.68;40.24;101216.09;4934211;29;20046;-84
2022/08/10 09:29:53;;;;;;;3.10;1.40;;;;;;;25.85;39.04;101213.56;4935417;29;20054;-83
2022/08/10 09:32:31;;;;;;;4.70;1.48;;;;;;;25.46;39.56;101204.31;4935538;29;20091;-83
2022/08/10 09:35:17;;;;;;;4.43;1.65;;;;;;;25.64;39.38;101208.94;4939514;29;20030;-83
2022/08/10 09:37:45;;;;;;;3.60;1.73;;;;;;;25.78;38.19;101206.06;4939923;29;20111;-83
2022/08/10 09:40:18;;;;;;;5.32;1.48;;;;;;;26.08;38.83;101206.16;4940316;29;20034;-83
2022/08/10 09:42:49;;;;;;;3.53;1.58;;;;;;;26.44;37.90;101199.41;4941153;29;20130;-84
2022/08/10 09:45:56;;;;;;;4.93;1.30;;;;;;;26.33;37.21;101199.50;4939286;29;20032;-84
2022/08/10 09:48:34;;;;;;;3.80;1.40;;;;;;;26.35;36.75;101200.69;4938632;29;20067;-83
2022/08/10 09:50:59;;;;;;;3.70;1.60;;;;;;;26.12;36.86;101199.75;4938171;29;20059;-82
2022/08/10 09:54:06;;;;;;;3.75;1.55;;;;;;;25.82;37.44;101198.44;4937106;29;20070;-83
2022/08/10 09:57:09;;;;;;;3.55;1.42;;;;;;;25.85;37.59;101194.03;4937181;29;20122;-84
2022/08/10 09:59:44;;;;;;;3.40;1.42;;;;;;;26.14;37.54;101197.31;4938379;29;20047;-83
2022/08/10 10:02:27;;;;;;;3.75;1.35;;;;;;;26.35;37.09;101183.94;4938039;29;20522;-81
2022/08/10 10:05:24;;;;;;;3.40;1.52;;;;;;;26.41;36.39;101183.50;4939329;29;20051;-81
2022/08/10 10:08:04;;;;;;;5.05;2.05;;;;;;;26.36;36.04;101171.56;4938097;29;20035;-82
2022/08/10 10:10:38;;;;;;;4.38;1.63;;;;;;;26.42;35.64;101168.31;4938709;29;20062;-84
2022/08/10 10:13:10;;;;;;;3.25;1.48;;;;;;;26.51;35.74;101163.78;4939484;29;20060;-84
2022/08/10 10:16:34;;;;;;;3.08;1.42;;;;;;;26.51;35.89;101165.81;4938517;29;20036;-83
2022/08/10 10:19:23;;;;;;;4.25;2.10;;;;;;;26.51;34.33;101166.59;4907519;29;20044;-85
2022/08/10 10:22:03;;;;;;;3.15;1.33;;;;;;;26.67;34.49;101160.41;4920473;29;20156;-84
2022/08/10 10:24:40;;;;;;;3.38;1.58;;;;;;;26.96;33.40;101158.00;4937589;29;20169;-80
2022/08/10 10:27:13;;;;;;;3.10;1.35;;;;;;;27.08;33.45;101160.25;4937493;29;20047;-82
2022/08/10 10:30:02;;;;;;;3.50;1.50;;;;;;;27.04;33.13;101156.69;4938805;29;20471;-84
2022/08/10 10:32:33;;;;;;;2.92;1.42;;;;;;;26.94;33.43;101155.63;4938719;29;20036;-83
2022/08/10 10:35:05;;;;;;;3.45;1.60;;;;;;;27.31;33.26;101153.09;4944677;29;20024;-82
2022/08/10 10:37:32;;;;;;;4.25;1.58;;;;;;;27.34;33.04;101155.03;4952387;29;20094;-82
2022/08/10 10:40:00;;;;;;;3.20;1.50;;;;;;;27.35;32.70;101151.03;4946387;29;20031;-84
2022/08/10 10:42:36;;;;;;;3.08;1.35;;;;;;;27.17;33.02;101152.09;4939111;29;20499;-83
2022/08/10 10:45:10;;;;;;;3.72;1.50;;;;;;;27.45;32.68;101150.84;4939595;29;20051;-83
2022/08/10 10:47:54;;;;;;;2.85;1.33;;;;;;;27.59;31.88;101152.63;4939361;29;20039;-84
2022/08/10 10:50:42;;;;;;;3.10;1.52;;;;;;;27.33;32.55;101142.28;4939113;29;20036;-83
2022/08/10 10:53:20;;;;;;;3.63;1.70;;;;;;;27.37;32.44;101135.41;4938911;29;20070;-84
2022/08/10 10:55:53;;;;;;;3.22;1.42;;;;;;;27.61;33.07;101141.00;4938584;29;20040;-83
2022/08/10 10:58:41;;;;;;;3.10;1.27;;;;;;;27.97;31.76;101141.94;4939051;29;20123;-83
2022/08/10 11:01:20;;;;;;;4.97;1.65;;;;;;;28.02;32.30;101132.25;4938457;29;20149;-84
2022/08/10 11:04:00;;;;;;;4.93;1.70;;;;;;;28.00;31.67;101135.47;4937908;29;20394;-82
2022/08/10 11:06:34;;;;;;;3.15;1.52;;;;;;;27.61;31.53;101133.41;4938008;29;20062;-84
2022/08/10 11:09:05;;;;;;;3.85;1.65;;;;;;;27.72;32.33;101134.03;4937920;29;20036;-83
2022/08/10 11:11:35;;;;;;;3.50;1.67;;;;;;;28.05;31.60;101125.78;4938045;29;20486;-82
2022/08/10 11:14:10;;;;;;;3.83;1.70;;;;;;;28.12;31.47;101125.66;4937684;29;20024;-85
2022/08/10 11:16:47;;;;;;;7.00;1.60;;;;;;;27.84;31.73;101124.97;4937973;29;20523;-84
2022/08/10 11:19:27;;;;;;;3.20;1.58;;;;;;;28.01;31.93;101119.47;4937766;29;20039;-84
2022/08/10 11:22:20;;;;;;;4.70;1.25;;;;;;;28.06;31.36;101102.19;4938152;29;20475;-83
2022/08/10 11:24:55;;;;;;;8.73;1.77;;;;;;;27.87;31.75;101109.34;4937439;29;20035;-83
2022/08/10 11:27:42;;;;;;;3.83;1.50;;;;;;;28.06;31.10;101102.97;4937132;29;20115;-83
2022/08/10 11:30:09;;;;;;;;;;;;;;;28.00;31.15;101106.69;4937862;29;20031;-83
2022/08/10 11:32:56;;;;;;;5.13;1.50;;;;;;;28.05;30.93;101107.00;4936862;29;20366;-84
2022/08/10 11:35:27;;;;;;;;;;;;;;;28.02;31.17;101098.66;4936037;29;20048;-83
2022/08/10 11:38:02;;;;;;;3.38;1.73;;;;;;;27.97;31.38;101101.97;4937108;29;20039;-83
2022/08/10 11:40:36;;;;;;;4.25;1.63;;;;;;;28.20;30.58;101093.47;4937469;29;20155;-83
2022/08/10 11:43:40;;;;;;;3.22;1.27;;;;;;;28.35;30.37;101097.56;4936899;29;20039;-83
2022/08/10 11:46:47;;;;;;;3.35;1.60;;;;;;;28.32;30.27;101094.84;4934602;29;20055;-82
2022/08/10 11:49:25;;;;;;;4.00;1.50;;;;;;;28.28;29.82;101089.34;4935758;29;20502;-84
2022/08/10 11:51:56;;;;;;;5.97;2.38;;;;;;;28.31;30.41;101087.69;4937473;29;20426;-83
2022/08/10 11:54:40;;;;;;;4.53;1.60;;;;;;;28.52;29.49;101090.00;4936716;29;20107;-83
2022/08/10 11:57:08;;;;;;;3.38;1.50;;;;;;;28.33;29.76;101080.41;4937850;29;20037;-85
2022/08/10 12:02:21;;;;;;;;;;;;;;;28.60;28.60;101090.66;4937354;29;20091;-85